Austinville, Iowa
Current Conditions -  °F | °C
As of 11:35 PM on Saturday 25 Oct 2014 (Local Time) from KIFA Reporting Station
Clear Clear  
Wind Chill: 44°   Ceiling: Unl
Heat Index: 44°   Visibility: 10mi
Dew Point: 35°   Wind: 0mph
Humidity: 72%   Direction: NA
Pressure: 30.08"   Gusts: NA
Location:  42.59°N, 92.96°W
Report Text: KIFA 260435Z AUTO 00000KT 10SM CLR 06/02 A3008 RMK AO2 T00640016
Loading
Personal Weather Stations






























Interactive Weather Map
Tropical Storm Tracking
New forecast layout! Learn more

10-Day Weather Forecast

Advertisements
Track Severe Weather on mobile